Time;durP1;ratioP1;P1;durP2;ratioP2;P2;SDS_P1;SDS_P2;PMS_P1;PMS_P2;Temp;Humidity;BMP_temperature;BMP_pressure;BME280_temperature;BME280_humidity;BME280_pressure;Samples;Min_cycle;Max_cycle;Signal;HPM_P1;HPM_P2
2023/07/27 00:00:06;;;;;;;7.90;4.38;;;14.50;99.90;;;;;;5145144;27;20034;-76
2023/07/27 00:02:33;;;;;;;7.30;4.43;;;14.50;99.90;;;;;;5141167;27;20027;-76
2023/07/27 00:04:58;;;;;;;6.32;4.50;;;14.40;99.90;;;;;;5142992;27;20062;-76
2023/07/27 00:07:24;;;;;;;7.25;4.53;;;14.40;99.90;;;;;;5121849;27;20127;-76
2023/07/27 00:09:50;;;;;;;6.47;4.28;;;14.40;99.90;;;;;;5133861;27;20410;-76
2023/07/27 00:12:15;;;;;;;9.00;4.40;;;14.30;99.90;;;;;;5142926;27;20084;-76
2023/07/27 00:14:41;;;;;;;6.03;4.20;;;14.30;99.90;;;;;;5139441;27;20034;-76
2023/07/27 00:17:07;;;;;;;7.65;4.43;;;14.30;99.90;;;;;;5139245;27;20118;-76
2023/07/27 00:19:32;;;;;;;6.93;4.78;;;14.30;99.90;;;;;;5134216;27;20089;-77
2023/07/27 00:21:58;;;;;;;6.55;4.43;;;14.40;99.90;;;;;;5143099;27;20124;-77
2023/07/27 00:24:23;;;;;;;8.43;4.75;;;14.30;99.90;;;;;;5140143;27;20053;-76
2023/07/27 00:26:49;;;;;;;7.25;5.10;;;14.30;99.90;;;;;;5137627;27;20443;-76
2023/07/27 00:29:14;;;;;;;8.93;4.97;;;14.20;99.90;;;;;;5119334;27;20035;-76
2023/07/27 00:31:40;;;;;;;7.80;4.50;;;14.20;99.90;;;;;;5140582;27;20047;-76
2023/07/27 00:34:05;;;;;;;6.32;4.57;;;14.20;99.90;;;;;;5137212;27;20071;-76
2023/07/27 00:36:31;;;;;;;8.95;4.68;;;14.20;99.90;;;;;;5134302;27;20073;-76
2023/07/27 00:38:57;;;;;;;8.93;5.18;;;14.20;99.90;;;;;;5144189;27;20405;-76
2023/07/27 00:41:22;;;;;;;8.32;4.43;;;14.20;99.90;;;;;;5136218;27;20047;-77
2023/07/27 00:43:48;;;;;;;8.63;4.80;;;14.20;99.90;;;;;;5133693;27;20035;-77
2023/07/27 00:46:14;;;;;;;9.30;5.25;;;14.20;99.90;;;;;;5134059;27;20113;-77
2023/07/27 00:48:40;;;;;;;8.27;4.95;;;14.20;99.90;;;;;;5139839;27;20144;-77
2023/07/27 00:51:07;;;;;;;7.28;4.85;;;14.10;99.90;;;;;;5132974;27;20039;-77
2023/07/27 00:53:32;;;;;;;7.55;5.03;;;14.20;99.90;;;;;;5132619;27;20498;-77
2023/07/27 00:55:59;;;;;;;7.03;5.15;;;14.10;99.90;;;;;;5137540;27;20157;-77
2023/07/27 00:58:25;;;;;;;7.45;4.88;;;14.20;99.90;;;;;;5141066;27;20061;-76
2023/07/27 01:00:51;;;;;;;9.95;5.80;;;14.10;99.90;;;;;;5137921;27;20057;-76
2023/07/27 01:03:16;;;;;;;8.57;4.97;;;14.10;99.90;;;;;;5140296;27;20046;-77
2023/07/27 01:05:42;;;;;;;7.38;5.10;;;14.10;99.90;;;;;;5123468;27;20110;-77
2023/07/27 01:08:07;;;;;;;7.10;4.95;;;14.10;99.90;;;;;;5139197;27;20043;-77
2023/07/27 01:10:53;;;;;;;6.80;5.22;;;14.00;99.90;;;;;;5134980;27;20425;-77
2023/07/27 01:13:40;;;;;;;7.30;4.55;;;14.00;99.90;;;;;;5134520;27;20082;-77
2023/07/27 01:16:14;;;;;;;6.88;4.70;;;14.00;99.90;;;;;;5136244;27;20083;-77
2023/07/27 01:18:49;;;;;;;7.55;5.05;;;14.00;99.90;;;;;;5141240;27;20121;-77
2023/07/27 01:21:19;;;;;;;7.60;5.30;;;14.00;99.90;;;;;;5155095;27;20096;-77
2023/07/27 01:24:10;;;;;;;8.43;4.93;;;13.90;99.90;;;;;;5144352;27;20535;-77
2023/07/27 01:26:57;;;;;;;6.05;4.57;;;13.90;99.90;;;;;;5132692;27;20038;-77
2023/07/27 01:29:43;;;;;;;6.78;4.57;;;13.90;99.90;;;;;;5115037;27;20039;-76
2023/07/27 01:32:10;;;;;;;8.68;5.00;;;13.90;99.90;;;;;;5147171;27;20503;-76
2023/07/27 01:34:42;;;;;;;6.93;4.60;;;13.90;99.90;;;;;;5117965;27;20108;-76
2023/07/27 01:37:09;;;;;;;7.20;4.88;;;13.90;99.90;;;;;;5136281;27;20043;-76
2023/07/27 01:39:41;;;;;;;8.35;4.85;;;13.90;99.90;;;;;;5140613;27;20080;-76
2023/07/27 01:42:11;;;;;;;7.57;4.60;;;13.80;99.90;;;;;;5139221;27;20039;-77
2023/07/27 01:44:37;;;;;;;6.32;4.50;;;13.90;99.90;;;;;;5136575;27;20540;-77
2023/07/27 01:47:04;;;;;;;7.55;5.28;;;13.80;99.90;;;;;;5138786;27;20083;-77
2023/07/27 01:49:32;;;;;;;6.68;4.50;;;13.80;99.90;;;;;;5136566;27;20049;-77
2023/07/27 01:51:58;;;;;;;7.07;4.70;;;13.90;99.90;;;;;;5137054;27;20046;-77
2023/07/27 01:54:26;;;;;;;6.03;4.60;;;13.90;99.90;;;;;;5138675;27;20039;-77
2023/07/27 01:56:54;;;;;;;7.90;4.25;;;13.90;99.90;;;;;;5133706;27;20031;-77
2023/07/27 01:59:21;;;;;;;6.00;4.35;;;13.90;99.90;;;;;;5136626;27;20118;-77
2023/07/27 02:01:47;;;;;;;7.45;4.65;;;13.90;99.90;;;;;;5137048;27;20497;-77
2023/07/27 02:04:13;;;;;;;6.28;4.47;;;13.90;99.90;;;;;;5133464;27;20057;-77
2023/07/27 02:06:38;;;;;;;7.38;4.53;;;13.90;99.90;;;;;;5140905;27;20030;-76
2023/07/27 02:09:04;;;;;;;7.70;4.40;;;14.00;99.90;;;;;;5133555;27;20520;-77
2023/07/27 02:11:29;;;;;;;9.32;4.70;;;14.00;99.90;;;;;;5138060;27;20042;-77
2023/07/27 02:14:01;;;;;;;7.30;4.63;;;14.00;99.90;;;;;;5120568;27;20083;-76
2023/07/27 02:16:52;;;;;;;6.50;4.68;;;14.00;99.90;;;;;;5134732;27;20034;-76
2023/07/27 02:19:21;;;;;;;8.23;5.38;;;14.00;99.90;;;;;;5133075;27;20052;-76
2023/07/27 02:21:47;;;;;;;6.97;4.20;;;14.00;99.90;;;;;;5141007;27;20118;-76
2023/07/27 02:24:13;;;;;;;6.90;4.63;;;14.00;99.90;;;;;;5137631;27;20118;-76
2023/07/27 02:26:40;;;;;;;8.85;5.28;;;14.00;99.90;;;;;;5132665;27;20054;-76
2023/07/27 02:29:05;;;;;;;8.30;5.00;;;14.00;99.90;;;;;;5140656;27;20049;-77
2023/07/27 02:31:31;;;;;;;7.55;4.70;;;14.00;99.90;;;;;;5142477;27;20414;-76
2023/07/27 02:33:56;;;;;;;9.10;5.30;;;14.00;99.90;;;;;;5136676;27;20039;-76
2023/07/27 02:36:22;;;;;;;6.60;4.68;;;14.10;99.90;;;;;;5139362;27;20045;-76
2023/07/27 02:38:47;;;;;;;7.38;4.50;;;14.00;99.90;;;;;;5142935;27;20034;-77
2023/07/27 02:41:13;;;;;;;8.55;5.10;;;14.00;99.90;;;;;;5131286;27;20027;-77
2023/07/27 02:43:38;;;;;;;7.28;4.80;;;14.00;99.90;;;;;;5137539;27;20505;-77
2023/07/27 02:46:05;;;;;;;6.40;4.35;;;14.00;99.90;;;;;;5133938;27;20039;-77
2023/07/27 02:48:31;;;;;;;7.78;4.75;;;14.10;99.90;;;;;;5144798;27;20046;-77
2023/07/27 02:50:56;;;;;;;8.55;5.03;;;14.10;99.90;;;;;;5138311;27;20408;-77
2023/07/27 02:53:22;;;;;;;8.02;4.85;;;14.10;99.90;;;;;;5135455;27;20065;-77
2023/07/27 02:55:59;;;;;;;7.40;5.28;;;14.10;99.90;;;;;;5138154;27;20039;-77
2023/07/27 02:58:26;;;;;;;8.43;4.72;;;14.10;99.90;;;;;;5137344;27;20160;-77
2023/07/27 03:01:00;;;;;;;7.95;4.95;;;14.10;99.90;;;;;;5120614;28;20458;-77
2023/07/27 03:03:26;;;;;;;8.10;4.63;;;14.10;99.90;;;;;;5139590;27;20038;-77
2023/07/27 03:05:59;;;;;;;7.70;4.97;;;14.10;99.90;;;;;;5138596;27;20383;-76
2023/07/27 03:08:28;;;;;;;7.38;4.45;;;14.10;99.90;;;;;;5132176;27;20038;-76
2023/07/27 03:10:54;;;;;;;8.65;4.82;;;14.20;99.90;;;;;;5136093;27;20039;-76
2023/07/27 03:13:20;;;;;;;7.80;4.65;;;14.20;99.90;;;;;;5132987;27;20035;-76
2023/07/27 03:15:45;;;;;;;8.23;4.80;;;14.30;99.90;;;;;;5115144;28;20440;-77
2023/07/27 03:18:11;;;;;;;7.07;4.68;;;14.30;99.90;;;;;;5145018;27;20123;-77
2023/07/27 03:20:41;;;;;;;6.85;4.60;;;14.30;99.90;;;;;;5142658;27;20027;-77
2023/07/27 03:23:07;;;;;;;6.47;4.60;;;14.30;99.90;;;;;;5137305;27;20496;-77
2023/07/27 03:25:34;;;;;;;8.00;5.00;;;14.30;99.90;;;;;;5130931;27;20091;-77
2023/07/27 03:28:08;;;;;;;6.65;4.28;;;14.30;99.90;;;;;;5129787;27;20490;-77
2023/07/27 03:30:38;;;;;;;9.48;5.18;;;14.40;99.90;;;;;;5129940;27;20111;-77
2023/07/27 03:33:07;;;;;;;6.97;4.65;;;14.40;99.90;;;;;;5132851;27;20087;-77
2023/07/27 03:35:34;;;;;;;6.78;4.95;;;14.40;99.90;;;;;;5136464;27;20654;-77
2023/07/27 03:37:59;;;;;;;6.32;4.88;;;14.30;99.90;;;;;;5135988;27;20071;-77
2023/07/27 03:40:25;;;;;;;9.10;4.80;;;14.30;99.90;;;;;;5133820;27;20039;-78
2023/07/27 03:42:50;;;;;;;8.23;4.65;;;14.30;99.90;;;;;;5134113;27;20513;-77
2023/07/27 03:45:16;;;;;;;6.40;4.82;;;14.20;99.90;;;;;;5129488;27;20047;-76
2023/07/27 03:47:43;;;;;;;9.52;5.07;;;14.20;99.90;;;;;;5136068;27;20125;-76
2023/07/27 03:50:09;;;;;;;7.60;5.28;;;14.20;99.90;;;;;;5136947;27;20039;-77
2023/07/27 03:52:34;;;;;;;6.38;4.65;;;14.20;99.90;;;;;;5128456;27;20043;-77
2023/07/27 03:55:00;;;;;;;8.23;5.63;;;14.20;99.90;;;;;;5136999;27;20041;-76
2023/07/27 03:57:25;;;;;;;9.57;5.45;;;14.20;99.90;;;;;;5137193;27;20050;-77
2023/07/27 03:59:58;;;;;;;9.27;4.95;;;14.20;99.90;;;;;;5143381;27;20042;-77
2023/07/27 04:02:25;;;;;;;8.80;5.22;;;14.20;99.90;;;;;;5147393;27;20034;-76
2023/07/27 04:04:51;;;;;;;8.90;5.30;;;14.20;99.90;;;;;;5144336;27;20100;-77
2023/07/27 04:07:20;;;;;;;9.27;5.47;;;14.20;99.90;;;;;;5144254;27;20035;-77
2023/07/27 04:09:46;;;;;;;7.57;5.40;;;14.20;99.90;;;;;;5140261;27;20039;-77
2023/07/27 04:12:12;;;;;;;8.50;5.43;;;14.20;99.90;;;;;;5136790;27;20049;-77
2023/07/27 04:14:38;;;;;;;7.80;5.97;;;14.20;99.90;;;;;;5136271;27;20405;-77
2023/07/27 04:17:04;;;;;;;9.20;5.63;;;14.20;99.90;;;;;;5143477;27;20031;-76
2023/07/27 04:19:30;;;;;;;6.95;5.32;;;14.20;99.90;;;;;;5144342;27;20541;-77
2023/07/27 04:21:55;;;;;;;9.88;5.57;;;14.20;99.90;;;;;;5137862;27;20121;-77
2023/07/27 04:24:21;;;;;;;10.38;5.80;;;14.20;99.90;;;;;;5147534;27;20120;-77
2023/07/27 04:26:46;;;;;;;8.52;5.68;;;14.10;99.90;;;;;;5143553;27;20127;-77
2023/07/27 04:29:12;;;;;;;10.35;5.68;;;14.10;99.90;;;;;;5146683;27;20046;-77
2023/07/27 04:31:37;;;;;;;9.68;6.43;;;14.10;99.90;;;;;;5141489;27;20045;-76
2023/07/27 04:34:03;;;;;;;10.60;6.78;;;14.10;99.90;;;;;;5136869;27;20069;-77
2023/07/27 04:36:28;;;;;;;10.93;6.40;;;14.00;99.90;;;;;;5141547;27;20080;-77
2023/07/27 04:38:54;;;;;;;8.98;6.45;;;14.00;99.90;;;;;;5139055;27;20031;-77
2023/07/27 04:41:19;;;;;;;9.32;6.35;;;14.00;99.90;;;;;;5135226;27;20112;-77
2023/07/27 04:43:45;;;;;;;10.30;6.53;;;14.00;99.90;;;;;;5133025;27;20047;-77
2023/07/27 04:46:11;;;;;;;9.20;6.50;;;14.10;99.90;;;;;;5141266;27;20043;-77
2023/07/27 04:48:36;;;;;;;9.65;6.97;;;14.10;99.90;;;;;;5149402;27;20409;-77
2023/07/27 04:51:02;;;;;;;9.80;7.15;;;14.00;99.90;;;;;;5138038;27;20043;-78
2023/07/27 04:53:27;;;;;;;10.38;6.85;;;14.00;99.90;;;;;;5134516;27;20088;-77
2023/07/27 04:55:53;;;;;;;11.10;7.25;;;14.10;99.90;;;;;;5141931;27;20379;-78
2023/07/27 04:58:18;;;;;;;10.90;7.25;;;14.00;99.90;;;;;;5137666;27;20501;-77
2023/07/27 05:00:44;;;;;;;10.57;7.20;;;14.00;99.90;;;;;;5121125;27;20031;-78
2023/07/27 05:03:10;;;;;;;10.68;7.10;;;14.00;99.90;;;;;;5135151;27;20038;-78
2023/07/27 05:05:42;;;;;;;12.60;7.00;;;14.00;99.90;;;;;;5141126;27;20035;-77
2023/07/27 05:08:08;;;;;;;9.90;7.43;;;14.00;99.90;;;;;;5136564;27;20047;-77
2023/07/27 05:10:33;;;;;;;10.13;6.78;;;14.00;99.90;;;;;;5138725;27;20043;-77
2023/07/27 05:12:59;;;;;;;11.45;7.45;;;14.00;99.90;;;;;;5145511;27;20067;-76
2023/07/27 05:15:24;;;;;;;10.68;6.95;;;14.00;99.90;;;;;;5135919;27;20451;-77
2023/07/27 05:17:50;;;;;;;11.02;7.22;;;14.00;99.90;;;;;;5140905;27;20506;-76
2023/07/27 05:20:15;;;;;;;9.98;7.03;;;14.00;99.90;;;;;;5147769;27;20034;-77
2023/07/27 05:22:42;;;;;;;11.57;7.18;;;14.00;99.90;;;;;;5120904;27;20114;-77
2023/07/27 05:25:10;;;;;;;9.88;6.82;;;14.10;99.90;;;;;;5137753;27;20505;-77
2023/07/27 05:27:36;;;;;;;12.05;7.60;;;14.00;99.90;;;;;;5140772;27;20076;-76
2023/07/27 05:30:02;;;;;;;10.80;6.97;;;14.10;99.90;;;;;;5134275;27;20042;-77
2023/07/27 05:32:27;;;;;;;10.77;6.88;;;14.10;99.90;;;;;;5137894;27;20046;-77
2023/07/27 05:34:54;;;;;;;10.30;6.75;;;14.10;99.90;;;;;;5131550;27;20056;-77
2023/07/27 05:37:20;;;;;;;13.95;6.80;;;14.10;99.90;;;;;;5138159;27;20498;-77
2023/07/27 05:39:46;;;;;;;13.63;7.18;;;14.10;99.90;;;;;;5115990;27;20122;-77
2023/07/27 05:42:11;;;;;;;10.65;6.82;;;14.20;99.90;;;;;;5143737;27;20063;-77
2023/07/27 05:44:37;;;;;;;10.45;6.53;;;14.20;99.90;;;;;;5138269;27;20038;-77
2023/07/27 05:47:05;;;;;;;9.02;6.35;;;14.20;99.90;;;;;;5142636;27;20051;-77
2023/07/27 05:49:31;;;;;;;10.55;6.88;;;14.20;99.90;;;;;;5140019;27;20038;-77
2023/07/27 05:51:56;;;;;;;8.60;6.28;;;14.20;99.90;;;;;;5136085;27;20092;-77
2023/07/27 05:54:22;;;;;;;9.52;6.53;;;14.20;99.90;;;;;;5144612;27;20042;-77
2023/07/27 05:56:47;;;;;;;9.80;6.32;;;14.30;99.90;;;;;;5141717;27;20110;-78
2023/07/27 05:59:13;;;;;;;8.05;6.13;;;14.30;99.90;;;;;;5144499;27;20027;-77
2023/07/27 06:01:38;;;;;;;8.82;6.30;;;14.30;99.90;;;;;;5144539;27;20171;-77
2023/07/27 06:04:04;;;;;;;9.95;6.60;;;14.30;99.90;;;;;;5144182;27;20042;-77
2023/07/27 06:06:29;;;;;;;8.05;6.45;;;14.30;99.90;;;;;;5137277;27;20034;-77
2023/07/27 06:08:55;;;;;;;8.60;6.35;;;14.30;99.90;;;;;;5137001;27;20765;-77
2023/07/27 06:11:20;;;;;;;8.65;6.25;;;14.40;99.90;;;;;;5135628;27;20038;-78
2023/07/27 06:13:46;;;;;;;9.38;6.47;;;14.50;99.90;;;;;;5139318;27;20035;-78
2023/07/27 06:16:12;;;;;;;8.18;6.18;;;14.60;99.90;;;;;;5136192;27;20046;-77
2023/07/27 06:18:37;;;;;;;10.30;6.07;;;14.60;99.90;;;;;;5135801;27;20111;-77
2023/07/27 06:21:03;;;;;;;10.52;6.80;;;14.70;99.90;;;;;;5138667;27;20039;-78
2023/07/27 06:23:28;;;;;;;8.52;5.43;;;14.90;99.90;;;;;;5136429;27;20542;-78
2023/07/27 06:25:54;;;;;;;9.38;6.28;;;14.90;99.90;;;;;;5135585;27;20034;-78
2023/07/27 06:28:19;;;;;;;9.13;6.10;;;15.00;99.90;;;;;;5137234;27;20545;-79
2023/07/27 06:30:45;;;;;;;8.65;6.32;;;15.10;99.90;;;;;;5132715;27;20042;-78
2023/07/27 06:33:11;;;;;;;8.00;5.50;;;15.20;99.90;;;;;;5117658;27;20386;-78
2023/07/27 06:35:37;;;;;;;7.75;5.80;;;15.30;99.90;;;;;;5135668;27;20054;-77
2023/07/27 06:38:02;;;;;;;9.23;6.40;;;15.30;99.90;;;;;;5140380;27;20039;-77
2023/07/27 06:40:28;;;;;;;7.22;5.13;;;15.40;99.90;;;;;;5135362;27;21791;-78
2023/07/27 06:42:53;;;;;;;7.55;5.78;;;15.30;99.90;;;;;;5136270;27;20035;-78
2023/07/27 06:45:20;;;;;;;8.00;5.50;;;15.40;99.90;;;;;;5140804;27;20046;-80
2023/07/27 06:47:46;;;;;;;8.30;5.65;;;15.40;99.90;;;;;;5117527;27;20042;-77
2023/07/27 06:50:11;;;;;;;7.13;5.38;;;15.40;99.90;;;;;;5138419;27;20076;-78
2023/07/27 06:52:37;;;;;;;6.38;4.68;;;15.40;99.90;;;;;;5132010;27;20039;-77
2023/07/27 06:55:03;;;;;;;7.85;5.07;;;15.40;99.90;;;;;;5134723;27;20054;-78
2023/07/27 06:57:29;;;;;;;7.47;5.28;;;15.40;99.90;;;;;;5137511;27;20042;-78
2023/07/27 06:59:54;;;;;;;6.18;5.13;;;15.40;99.90;;;;;;5117077;27;20039;-77
2023/07/27 07:02:20;;;;;;;8.90;5.60;;;15.40;99.90;;;;;;5137380;27;20033;-79
2023/07/27 07:04:45;;;;;;;8.70;5.47;;;15.40;99.90;;;;;;5131299;27;20529;-78
2023/07/27 07:07:11;;;;;;;7.93;5.43;;;15.40;99.90;;;;;;5139459;27;20046;-78
2023/07/27 07:09:37;;;;;;;7.55;5.13;;;15.40;99.90;;;;;;5145396;27;20035;-78
2023/07/27 07:12:04;;;;;;;6.70;5.00;;;15.40;99.90;;;;;;5144849;27;20080;-78
2023/07/27 07:14:31;;;;;;;7.75;5.13;;;15.50;99.90;;;;;;5141951;27;20031;-78
2023/07/27 07:16:57;;;;;;;6.80;4.70;;;15.50;99.90;;;;;;5141449;27;20203;-77
2023/07/27 07:19:22;;;;;;;5.97;4.78;;;15.50;99.90;;;;;;5144904;27;20066;-78
2023/07/27 07:21:48;;;;;;;6.97;4.55;;;15.50;99.90;;;;;;5141933;27;20508;-75
2023/07/27 07:24:13;;;;;;;7.38;4.75;;;15.50;99.90;;;;;;5139779;27;20043;-77
2023/07/27 07:26:39;;;;;;;6.03;4.85;;;15.50;99.90;;;;;;5156087;27;20045;-78
2023/07/27 07:29:04;;;;;;;5.32;4.30;;;15.50;99.90;;;;;;5150540;27;20030;-77
2023/07/27 07:31:30;;;;;;;7.07;4.53;;;15.50;99.90;;;;;;5147942;27;20027;-76
2023/07/27 07:33:56;;;;;;;5.47;4.50;;;15.50;99.90;;;;;;5150799;27;20035;-77
2023/07/27 07:36:22;;;;;;;6.60;4.60;;;15.50;99.90;;;;;;5152329;27;20038;-77
2023/07/27 07:38:47;;;;;;;8.55;4.78;;;15.40;99.90;;;;;;5149323;27;20041;-78
2023/07/27 07:41:13;;;;;;;5.75;4.30;;;15.50;99.90;;;;;;5146856;27;20038;-79
2023/07/27 07:43:39;;;;;;;6.18;5.00;;;15.60;99.90;;;;;;5149302;27;20026;-78
2023/07/27 07:46:09;;;;;;;7.70;4.50;;;15.70;99.90;;;;;;5148547;27;20039;-78
2023/07/27 07:48:34;;;;;;;6.05;4.43;;;15.80;99.90;;;;;;5147181;27;20038;-78
2023/07/27 07:51:00;;;;;;;5.72;4.22;;;15.90;99.90;;;;;;5150913;27;20058;-78
2023/07/27 07:53:25;;;;;;;7.55;4.32;;;16.00;99.90;;;;;;5149922;27;20069;-78
2023/07/27 07:55:51;;;;;;;7.28;4.45;;;16.10;99.90;;;;;;5151578;27;20046;-78
2023/07/27 07:58:16;;;;;;;6.22;4.55;;;16.10;99.90;;;;;;5152186;27;20038;-78
2023/07/27 08:00:42;;;;;;;7.38;4.70;;;16.20;99.90;;;;;;5152816;27;20030;-78
2023/07/27 08:03:08;;;;;;;5.82;4.10;;;16.20;99.90;;;;;;5150904;27;20078;-78
2023/07/27 08:05:33;;;;;;;5.20;4.35;;;16.30;99.90;;;;;;5147266;27;20035;-78
2023/07/27 08:08:01;;;;;;;5.88;3.80;;;16.40;99.90;;;;;;5146898;27;20031;-78
2023/07/27 08:10:26;;;;;;;4.25;3.25;;;16.40;99.90;;;;;;5150426;27;20046;-78
2023/07/27 08:12:53;;;;;;;4.38;3.13;;;16.50;99.90;;;;;;5149447;27;20580;-79
2023/07/27 08:15:18;;;;;;;5.15;3.20;;;16.50;99.90;;;;;;5147639;27;20070;-78
2023/07/27 08:17:44;;;;;;;4.63;3.30;;;16.50;99.90;;;;;;5150224;27;20397;-78
2023/07/27 08:20:10;;;;;;;5.05;3.20;;;16.50;99.90;;;;;;5146407;27;20497;-77
2023/07/27 08:22:35;;;;;;;3.75;2.97;;;16.50;99.90;;;;;;5140898;27;20524;-78
2023/07/27 08:25:04;;;;;;;3.33;2.70;;;16.50;99.90;;;;;;5130953;27;20042;-78
2023/07/27 08:27:32;;;;;;;3.78;2.58;;;16.50;99.90;;;;;;5151077;27;20038;-77
2023/07/27 08:29:58;;;;;;;3.72;3.10;;;16.50;99.90;;;;;;5127784;27;20046;-77
2023/07/27 08:32:23;;;;;;;3.20;2.55;;;16.40;99.90;;;;;;5148707;27;20087;-78
2023/07/27 08:34:49;;;;;;;3.20;2.58;;;16.30;99.90;;;;;;5147353;27;20038;-78
2023/07/27 08:37:14;;;;;;;4.38;2.75;;;16.40;99.90;;;;;;5130848;27;20035;-77
2023/07/27 08:39:40;;;;;;;3.88;2.90;;;16.20;99.90;;;;;;5143615;27;20401;-77
2023/07/27 08:42:05;;;;;;;3.20;2.80;;;16.40;99.90;;;;;;5116563;27;20631;-77
2023/07/27 08:44:31;;;;;;;3.55;2.95;;;16.30;99.90;;;;;;5152195;27;20521;-78
2023/07/27 08:47:00;;;;;;;4.20;3.08;;;16.40;99.90;;;;;;5149317;27;20113;-77
2023/07/27 08:49:25;;;;;;;3.80;2.70;;;16.40;99.90;;;;;;5152737;27;20034;-78
2023/07/27 08:51:51;;;;;;;3.28;2.80;;;16.40;99.90;;;;;;5135347;27;20034;-77
2023/07/27 08:54:16;;;;;;;4.18;2.80;;;16.60;99.90;;;;;;5149795;27;20088;-78
2023/07/27 08:56:42;;;;;;;3.72;2.80;;;16.50;99.90;;;;;;5149933;27;20035;-77
2023/07/27 08:59:08;;;;;;;3.83;2.92;;;16.50;99.90;;;;;;5143003;27;20122;-77
2023/07/27 09:01:34;;;;;;;5.32;3.35;;;16.50;99.90;;;;;;5142179;27;20035;-77
2023/07/27 09:04:00;;;;;;;9.00;5.82;;;16.60;99.90;;;;;;5142817;27;20382;-78
2023/07/27 09:06:43;;;;;;;10.30;6.13;;;16.70;99.90;;;;;;5138926;27;20140;-77
2023/07/27 09:09:16;;;;;;;12.90;5.93;;;16.80;99.90;;;;;;5141794;27;20070;-76
2023/07/27 09:11:42;;;;;;;7.10;4.30;;;17.00;99.90;;;;;;5145355;27;20057;-77
2023/07/27 09:14:08;;;;;;;8.93;4.30;;;17.10;99.90;;;;;;5142460;27;20475;-77
2023/07/27 09:16:35;;;;;;;8.73;4.38;;;17.20;99.90;;;;;;5142701;27;20031;-77
2023/07/27 09:19:01;;;;;;;4.70;3.50;;;17.40;99.90;;;;;;5142689;27;20066;-77
2023/07/27 09:21:27;;;;;;;6.03;3.22;;;17.40;99.90;;;;;;5140938;27;20397;-77
2023/07/27 09:23:57;;;;;;;3.38;2.83;;;17.50;99.90;;;;;;5124621;27;20034;-77
2023/07/27 09:26:27;;;;;;;3.83;2.67;;;17.40;99.90;;;;;;5143083;27;20057;-78
2023/07/27 09:28:53;;;;;;;2.83;2.50;;;17.50;99.90;;;;;;5137142;27;20046;-78
2023/07/27 09:31:19;;;;;;;2.83;2.25;;;17.40;99.90;;;;;;5138195;27;20486;-79
2023/07/27 09:33:44;;;;;;;2.78;2.28;;;17.40;99.90;;;;;;5137372;27;20046;-78
2023/07/27 09:36:10;;;;;;;2.63;2.20;;;17.40;99.90;;;;;;5134705;27;20043;-78
2023/07/27 09:38:36;;;;;;;2.95;2.00;;;17.50;99.90;;;;;;5135107;27;20031;-78
2023/07/27 09:41:07;;;;;;;2.97;2.00;;;17.50;99.90;;;;;;5133462;27;20394;-78
2023/07/27 09:43:38;;;;;;;2.25;1.90;;;17.50;99.90;;;;;;5132180;27;20073;-78
2023/07/27 09:46:04;;;;;;;1.92;1.70;;;17.40;99.90;;;;;;5134537;27;20043;-78
2023/07/27 09:48:30;;;;;;;2.03;1.60;;;17.30;99.90;;;;;;5136101;27;20152;-77
2023/07/27 09:50:58;;;;;;;2.63;1.60;;;17.30;99.90;;;;;;5139313;27;20130;-78
2023/07/27 09:53:26;;;;;;;1.50;1.40;;;17.20;99.90;;;;;;5135831;27;20035;-77
2023/07/27 09:55:53;;;;;;;1.83;1.20;;;17.10;99.90;;;;;;5134476;27;20051;-78
2023/07/27 09:58:19;;;;;;;1.50;1.30;;;17.10;99.90;;;;;;5134975;27;20035;-78
2023/07/27 10:00:44;;;;;;;2.60;1.50;;;17.10;99.90;;;;;;5134271;27;20031;-79
2023/07/27 10:03:10;;;;;;;2.10;1.90;;;17.10;99.90;;;;;;5133658;27;20035;-78
2023/07/27 10:05:40;;;;;;;1.70;1.42;;;17.10;99.90;;;;;;5134710;27;20417;-78
2023/07/27 10:08:06;;;;;;;2.42;1.60;;;17.20;99.90;;;;;;5134224;27;20059;-78
2023/07/27 10:10:39;;;;;;;1.60;1.50;;;17.20;99.90;;;;;;5136614;27;20061;-77
2023/07/27 10:13:09;;;;;;;1.98;1.30;;;17.20;99.90;;;;;;5136941;27;20039;-77
2023/07/27 10:15:42;;;;;;;2.17;1.70;;;17.20;99.90;;;;;;5140742;27;20035;-77
2023/07/27 10:18:11;;;;;;;2.27;1.87;;;17.20;99.90;;;;;;5135970;27;20476;-78
2023/07/27 10:20:36;;;;;;;2.75;2.10;;;17.20;99.90;;;;;;5141808;27;20035;-77
2023/07/27 10:23:25;;;;;;;2.33;2.00;;;17.30;99.90;;;;;;5137248;27;20031;-77
2023/07/27 10:25:56;;;;;;;2.20;2.00;;;17.30;99.90;;;;;;5141773;27;20106;-77
2023/07/27 10:28:40;;;;;;;2.20;2.00;;;17.30;99.90;;;;;;5142685;27;20046;-76
2023/07/27 10:31:28;;;;;;;2.90;2.20;;;17.20;99.90;;;;;;5137360;27;20069;-76
2023/07/27 10:33:56;;;;;;;2.50;2.30;;;17.30;99.90;;;;;;5136508;27;20045;-75
2023/07/27 10:36:25;;;;;;;2.50;2.30;;;17.40;99.90;;;;;;5142724;27;20047;-75
2023/07/27 10:38:55;;;;;;;2.47;2.28;;;17.40;99.90;;;;;;5133403;27;20035;-76
2023/07/27 10:41:24;;;;;;;2.80;2.50;;;17.40;99.90;;;;;;5126635;27;20151;-76
2023/07/27 10:44:14;;;;;;;3.05;2.70;;;17.50;99.90;;;;;;5113087;27;20155;-75
2023/07/27 10:46:44;;;;;;;2.90;2.60;;;17.50;99.90;;;;;;5120330;27;20363;-75
2023/07/27 10:49:11;;;;;;;2.95;2.38;;;17.50;99.90;;;;;;5135646;27;20039;-76
2023/07/27 10:51:38;;;;;;;2.70;2.50;;;17.60;99.90;;;;;;5137027;27;20080;-76
2023/07/27 10:54:04;;;;;;;2.83;2.63;;;17.60;99.90;;;;;;5135434;27;20039;-75
2023/07/27 10:56:31;;;;;;;3.03;2.72;;;17.70;99.90;;;;;;5136711;27;20088;-76
2023/07/27 10:59:01;;;;;;;3.05;2.65;;;17.60;99.90;;;;;;5136830;27;20063;-76
2023/07/27 11:01:30;;;;;;;3.60;3.30;;;17.50;99.90;;;;;;5140362;27;20046;-76
2023/07/27 11:03:56;;;;;;;3.58;3.15;;;17.50;99.90;;;;;;5134476;27;20042;-76
2023/07/27 11:06:24;;;;;;;3.20;2.88;;;17.50;99.90;;;;;;5147720;27;20046;-76
2023/07/27 11:08:50;;;;;;;3.45;3.15;;;17.50;99.90;;;;;;5138467;27;20046;-76
2023/07/27 11:11:18;;;;;;;3.58;3.28;;;17.40;99.90;;;;;;5112792;27;20038;-77
2023/07/27 11:13:44;;;;;;;4.10;3.70;;;17.40;99.90;;;;;;5144631;27;20041;-76
2023/07/27 11:16:12;;;;;;;3.70;3.40;;;17.50;99.90;;;;;;5142038;27;20042;-77
2023/07/27 11:18:37;;;;;;;4.13;3.78;;;17.30;99.90;;;;;;5141341;27;20163;-77
2023/07/27 11:21:03;;;;;;;4.38;3.97;;;17.30;99.90;;;;;;5146491;27;20125;-77
2023/07/27 11:23:30;;;;;;;4.97;4.00;;;17.30;99.90;;;;;;5143214;27;20038;-75
2023/07/27 11:25:56;;;;;;;4.93;3.95;;;17.30;99.90;;;;;;5145093;27;20045;-77
2023/07/27 11:28:22;;;;;;;4.93;4.43;;;17.30;99.90;;;;;;5131238;27;20046;-76
2023/07/27 11:30:52;;;;;;;4.10;3.70;;;17.40;99.90;;;;;;5148099;27;20031;-76
2023/07/27 11:33:20;;;;;;;4.65;4.25;;;17.30;99.90;;;;;;5142008;27;20558;-77
2023/07/27 11:35:47;;;;;;;4.88;4.38;;;17.50;99.90;;;;;;5129846;27;20149;-77
2023/07/27 11:38:13;;;;;;;5.25;4.68;;;17.50;99.90;;;;;;5140904;27;20445;-78
2023/07/27 11:40:44;;;;;;;5.00;4.55;;;17.70;99.90;;;;;;5134949;27;20059;-77
2023/07/27 11:43:10;;;;;;;5.28;4.78;;;17.80;99.90;;;;;;5138052;27;20038;-78
2023/07/27 11:45:38;;;;;;;5.55;5.05;;;17.80;99.90;;;;;;5134848;27;20426;-77
2023/07/27 11:48:04;;;;;;;4.97;4.47;;;17.90;99.90;;;;;;5138959;27;20558;-76
2023/07/27 11:50:30;;;;;;;5.07;4.68;;;18.00;99.90;;;;;;5135344;27;20189;-76
2023/07/27 11:53:02;;;;;;;5.72;4.65;;;18.00;99.90;;;;;;5120748;27;20066;-77
2023/07/27 11:55:32;;;;;;;5.20;4.50;;;17.90;99.90;;;;;;5128977;27;20046;-77
2023/07/27 11:57:58;;;;;;;4.53;3.88;;;18.00;99.90;;;;;;5134130;27;20034;-77
2023/07/27 12:00:23;;;;;;;4.65;4.25;;;18.20;99.90;;;;;;5129194;27;20038;-76
2023/07/27 12:02:50;;;;;;;4.35;3.95;;;18.20;99.90;;;;;;5133365;27;20031;-77
2023/07/27 12:05:21;;;;;;;4.38;3.97;;;18.30;99.90;;;;;;5136916;27;20068;-77
2023/07/27 12:07:48;;;;;;;4.50;3.55;;;18.30;99.90;;;;;;5134049;27;20062;-77
2023/07/27 12:10:16;;;;;;;3.85;3.50;;;18.30;99.90;;;;;;5134571;27;20049;-79
2023/07/27 12:12:58;;;;;;;3.60;3.30;;;18.40;99.90;;;;;;5136780;27;20046;-76
2023/07/27 12:15:30;;;;;;;4.43;3.22;;;18.50;99.90;;;;;;5120319;27;20086;-76
2023/07/27 12:17:56;;;;;;;3.50;3.20;;;18.50;99.90;;;;;;5144832;27;20043;-76
2023/07/27 12:20:26;;;;;;;3.40;3.10;;;18.60;99.90;;;;;;5151752;27;20031;-77
2023/07/27 12:22:52;;;;;;;3.33;3.00;;;18.60;99.90;;;;;;5126594;27;20521;-77
2023/07/27 12:25:18;;;;;;;2.80;2.60;;;18.80;99.90;;;;;;5135040;27;20059;-76
2023/07/27 12:27:43;;;;;;;3.08;2.47;;;18.90;99.90;;;;;;5136846;27;20114;-76
2023/07/27 12:30:10;;;;;;;2.30;2.10;;;19.10;99.90;;;;;;5138944;27;20447;-77
2023/07/27 12:32:35;;;;;;;2.65;2.10;;;19.20;99.90;;;;;;5119069;27;20624;-76
2023/07/27 12:35:02;;;;;;;2.75;2.25;;;19.30;99.90;;;;;;5147119;27;20127;-76
2023/07/27 12:37:29;;;;;;;2.10;1.90;;;19.40;99.90;;;;;;5124284;27;20067;-78
2023/07/27 12:39:55;;;;;;;2.08;1.80;;;19.30;99.90;;;;;;5146140;27;20114;-77
2023/07/27 12:42:21;;;;;;;1.85;1.63;;;19.40;99.90;;;;;;5148054;27;20071;-77
2023/07/27 12:44:46;;;;;;;2.03;1.83;;;19.40;99.90;;;;;;5152496;27;20117;-78